createdAt,value
2023-12-23T00:02:23.173Z,2.85
2023-12-23T00:04:54.268Z,2.75
2023-12-23T00:07:24.853Z,2.30
2023-12-23T00:09:56.244Z,2.00
2023-12-23T00:12:27.116Z,2.33
2023-12-23T00:15:00.568Z,2.72
2023-12-23T00:17:32.057Z,2.08
2023-12-23T00:20:03.154Z,3.20
2023-12-23T00:22:34.012Z,3.10
2023-12-23T00:25:04.804Z,3.22
2023-12-23T00:27:35.569Z,3.65
2023-12-23T00:30:10.564Z,3.40
2023-12-23T00:32:42.096Z,2.60
2023-12-23T00:35:12.933Z,3.90
2023-12-23T00:37:43.816Z,3.25
2023-12-23T00:40:15.105Z,3.03
2023-12-23T00:42:46.144Z,3.47
2023-12-23T00:45:20.075Z,2.33
2023-12-23T00:47:51.058Z,2.72
2023-12-23T00:50:22.287Z,4.15
2023-12-23T00:52:53.354Z,2.78
2023-12-23T00:55:24.257Z,2.20
2023-12-23T00:57:55.016Z,3.83
2023-12-23T01:00:28.773Z,2.97
2023-12-23T01:02:59.571Z,2.00
2023-12-23T01:05:30.250Z,1.88
2023-12-23T01:08:01.116Z,3.15
2023-12-23T01:10:32.279Z,2.13
2023-12-23T01:13:03.123Z,2.10
2023-12-23T01:15:37.082Z,2.90
2023-12-23T01:18:08.570Z,1.83
2023-12-23T01:20:39.890Z,3.58
2023-12-23T01:23:10.467Z,2.85
2023-12-23T01:25:41.385Z,2.63
2023-12-23T01:28:12.255Z,2.70
2023-12-23T01:30:45.948Z,2.70
2023-12-23T01:33:17.121Z,2.15
2023-12-23T01:35:47.899Z,2.63
2023-12-23T01:38:18.551Z,2.88
2023-12-23T01:40:49.533Z,3.00
2023-12-23T01:43:21.347Z,2.15
2023-12-23T01:46:00.620Z,1.55
2023-12-23T01:48:32.384Z,2.00
2023-12-23T01:51:03.668Z,2.05
2023-12-23T01:53:35.443Z,1.80
2023-12-23T01:56:06.549Z,1.80
2023-12-23T01:58:37.910Z,1.65
2023-12-23T02:01:11.831Z,2.03
2023-12-23T02:03:42.986Z,1.60
2023-12-23T02:06:13.636Z,2.15
2023-12-23T02:08:44.580Z,2.05
2023-12-23T02:11:23.124Z,1.60
2023-12-23T02:14:01.327Z,1.60
2023-12-23T02:16:35.994Z,1.65
2023-12-23T02:19:06.675Z,1.42
2023-12-23T02:21:40.549Z,1.35
2023-12-23T02:24:11.439Z,1.90
2023-12-23T02:26:45.003Z,1.73
2023-12-23T02:29:16.955Z,2.22
2023-12-23T02:31:48.804Z,1.30
2023-12-23T02:34:21.104Z,1.58
2023-12-23T02:36:56.640Z,1.35
2023-12-23T02:39:27.367Z,1.67
2023-12-23T02:41:58.373Z,1.58
2023-12-23T02:44:29.442Z,1.80
2023-12-23T02:47:00.274Z,1.40
2023-12-23T02:49:30.989Z,1.52
2023-12-23T02:52:04.656Z,1.13
2023-12-23T02:54:35.245Z,1.73
2023-12-23T02:57:05.959Z,1.25
2023-12-23T02:59:36.705Z,1.30
2023-12-23T03:02:07.794Z,1.45
2023-12-23T03:04:38.593Z,1.48
2023-12-23T03:07:13.904Z,1.70
2023-12-23T03:09:44.493Z,1.35
2023-12-23T03:12:15.346Z,1.13
2023-12-23T03:14:46.256Z,1.65
2023-12-23T03:17:17.200Z,1.75
2023-12-23T03:19:47.890Z,1.42
2023-12-23T03:22:21.396Z,1.90
2023-12-23T03:24:52.224Z,2.22
2023-12-23T03:27:23.265Z,1.95
2023-12-23T03:29:53.967Z,1.67
2023-12-23T03:32:24.987Z,5.70
2023-12-23T03:34:56.376Z,6.03
2023-12-23T03:37:29.660Z,4.95
2023-12-23T03:40:00.318Z,2.83
2023-12-23T03:42:32.163Z,3.75
2023-12-23T03:45:02.999Z,3.75
2023-12-23T03:47:34.683Z,2.17
2023-12-23T03:50:05.790Z,4.05
2023-12-23T03:52:39.190Z,5.05
2023-12-23T03:55:10.739Z,6.47
2023-12-23T03:57:41.553Z,7.45
2023-12-23T04:00:13.560Z,5.55
2023-12-23T04:02:46.928Z,8.85
2023-12-23T04:05:19.667Z,8.05
2023-12-23T04:07:54.733Z,9.18
2023-12-23T04:10:25.466Z,6.18
2023-12-23T04:12:56.589Z,5.30
2023-12-23T04:15:27.722Z,3.53
2023-12-23T04:17:58.851Z,2.80
2023-12-23T04:20:29.949Z,2.85
2023-12-23T04:23:04.023Z,2.55
2023-12-23T04:25:34.980Z,2.70
2023-12-23T04:28:05.597Z,2.92
2023-12-23T04:30:36.406Z,3.97
2023-12-23T04:33:08.134Z,3.85
2023-12-23T04:35:39.610Z,4.57
2023-12-23T04:38:14.899Z,2.90
2023-12-23T04:40:46.717Z,4.55
2023-12-23T04:43:17.441Z,2.65
2023-12-23T04:45:48.235Z,4.53
2023-12-23T04:48:19.231Z,3.05
2023-12-23T04:50:50.301Z,2.58
2023-12-23T04:53:25.676Z,4.13
2023-12-23T04:55:56.784Z,4.07
2023-12-23T04:58:28.922Z,3.90
2023-12-23T05:00:59.741Z,4.45
2023-12-23T05:03:32.790Z,4.50
2023-12-23T05:06:04.802Z,3.17
2023-12-23T05:08:38.797Z,3.00
2023-12-23T05:11:09.818Z,4.30
2023-12-23T05:13:40.353Z,2.22
2023-12-23T05:16:11.422Z,4.57
2023-12-23T05:18:42.826Z,2.78
2023-12-23T05:21:13.580Z,1.92
2023-12-23T05:23:47.678Z,3.97
2023-12-23T05:26:22.131Z,4.55
2023-12-23T05:28:53.447Z,3.30
2023-12-23T05:31:24.306Z,2.13
2023-12-23T05:33:57.557Z,2.08
2023-12-23T05:36:28.596Z,3.00
2023-12-23T05:39:02.551Z,2.50
2023-12-23T05:41:33.001Z,3.40
2023-12-23T05:44:05.407Z,3.60
2023-12-23T05:46:37.525Z,5.15
2023-12-23T05:49:08.054Z,3.63
2023-12-23T05:51:39.266Z,2.30
2023-12-23T05:54:12.926Z,4.00
2023-12-23T05:56:43.795Z,4.90
2023-12-23T05:59:14.469Z,4.30
2023-12-23T06:01:45.275Z,6.35
2023-12-23T06:04:16.119Z,5.90
2023-12-23T06:06:46.965Z,4.78
2023-12-23T06:09:20.360Z,5.25
2023-12-23T06:11:51.358Z,3.72
2023-12-23T06:14:22.105Z,4.45
2023-12-23T06:16:53.143Z,4.05
2023-12-23T06:19:24.352Z,22.20
2023-12-23T06:21:55.036Z,25.20
2023-12-23T06:24:28.218Z,3.60
2023-12-23T06:26:58.885Z,4.25
2023-12-23T06:29:31.979Z,2.47
2023-12-23T06:32:03.835Z,1.85
2023-12-23T06:34:34.604Z,2.20
2023-12-23T06:37:05.366Z,2.60
2023-12-23T06:39:38.890Z,2.20
2023-12-23T06:42:10.563Z,1.92
2023-12-23T06:44:41.306Z,2.80
2023-12-23T06:47:12.097Z,4.03
2023-12-23T06:49:42.982Z,2.78
2023-12-23T06:52:13.790Z,2.80
2023-12-23T06:54:47.234Z,2.88
2023-12-23T06:57:18.253Z,2.63
2023-12-23T06:59:49.888Z,2.67
2023-12-23T07:02:21.289Z,1.80
2023-12-23T07:04:52.276Z,2.67
2023-12-23T07:07:23.535Z,3.45
2023-12-23T07:10:04.333Z,5.22
2023-12-23T07:12:38.543Z,4.10
2023-12-23T07:15:11.119Z,3.28
2023-12-23T07:17:42.438Z,3.00
2023-12-23T07:20:15.133Z,2.00
2023-12-23T07:22:45.940Z,2.97
2023-12-23T07:25:19.530Z,2.30
2023-12-23T07:27:50.147Z,1.92
2023-12-23T07:30:21.208Z,1.92
2023-12-23T07:32:52.613Z,4.20
2023-12-23T07:35:23.346Z,5.07
2023-12-23T07:37:54.793Z,4.55
2023-12-23T07:40:30.580Z,4.60
2023-12-23T07:43:02.306Z,7.50
2023-12-23T07:45:35.923Z,5.93
2023-12-23T07:48:07.497Z,5.38
2023-12-23T07:50:38.264Z,3.78
2023-12-23T07:53:08.990Z,26.15
2023-12-23T07:55:42.900Z,9.13
2023-12-23T07:58:13.665Z,7.95
2023-12-23T08:00:44.805Z,4.93
2023-12-23T08:03:15.406Z,5.05
2023-12-23T08:05:46.384Z,8.57
2023-12-23T08:08:17.333Z,7.45
2023-12-23T08:10:51.724Z,5.63
2023-12-23T08:13:22.476Z,2.00
2023-12-23T08:15:53.649Z,2.72
2023-12-23T08:18:24.765Z,2.30
2023-12-23T08:20:55.507Z,2.08
2023-12-23T08:23:26.387Z,1.95
2023-12-23T08:26:00.559Z,1.77
2023-12-23T08:28:31.429Z,1.35
2023-12-23T08:31:02.206Z,1.17
2023-12-23T08:33:32.999Z,1.20
2023-12-23T08:36:03.915Z,5.35
2023-12-23T08:38:34.567Z,4.55
2023-12-23T08:41:08.472Z,2.17
2023-12-23T08:43:39.286Z,2.03
2023-12-23T08:46:07.592Z,1.52
2023-12-23T08:48:39.066Z,2.17
2023-12-23T08:51:11.843Z,2.38
2023-12-23T08:53:42.640Z,4.50
2023-12-23T08:56:15.952Z,6.97
2023-12-23T08:58:46.459Z,2.22
2023-12-23T09:01:17.175Z,1.92
2023-12-23T09:03:48.068Z,3.25
2023-12-23T09:06:19.508Z,2.45
2023-12-23T09:08:53.037Z,1.80
2023-12-23T09:11:26.910Z,2.28
2023-12-23T09:13:57.714Z,2.67
2023-12-23T09:16:28.878Z,4.45
2023-12-23T09:18:59.800Z,7.85
2023-12-23T09:21:30.597Z,27.75
2023-12-23T09:24:01.529Z,24.60
2023-12-23T09:26:35.339Z,7.80
2023-12-23T09:29:06.527Z,6.55
2023-12-23T09:31:37.190Z,6.22
2023-12-23T09:34:07.986Z,3.25
2023-12-23T09:36:38.759Z,2.20
2023-12-23T09:39:09.387Z,2.20
2023-12-23T09:41:44.807Z,1.80
2023-12-23T09:44:15.740Z,1.60
2023-12-23T09:46:46.766Z,2.10
2023-12-23T09:49:17.825Z,2.03
2023-12-23T09:51:49.107Z,1.70
2023-12-23T09:54:25.289Z,1.02
2023-12-23T09:56:58.862Z,1.50
2023-12-23T09:59:30.141Z,2.00
2023-12-23T10:02:00.980Z,2.28
2023-12-23T10:04:33.434Z,3.10
2023-12-23T10:07:04.191Z,4.18
2023-12-23T10:09:35.251Z,3.05
2023-12-23T10:12:10.580Z,2.22
2023-12-23T10:14:42.939Z,2.78
2023-12-23T10:17:13.977Z,3.42
2023-12-23T10:19:44.747Z,4.22
2023-12-23T10:22:17.605Z,5.75
2023-12-23T10:24:48.471Z,3.60
2023-12-23T10:27:23.057Z,2.03
2023-12-23T10:29:57.504Z,2.20
2023-12-23T10:32:29.643Z,2.83
2023-12-23T10:35:04.324Z,2.90
2023-12-23T10:37:36.760Z,2.03
2023-12-23T10:40:16.438Z,3.78
2023-12-23T10:42:52.574Z,2.25
2023-12-23T10:45:24.741Z,2.70
2023-12-23T10:47:57.173Z,2.33
2023-12-23T10:50:30.408Z,2.53
2023-12-23T10:53:02.287Z,2.80
2023-12-23T10:55:34.870Z,1.42
2023-12-23T10:58:11.368Z,1.40
2023-12-23T11:00:42.732Z,2.00
2023-12-23T11:03:15.809Z,1.73
2023-12-23T11:05:47.722Z,2.47
2023-12-23T11:08:23.217Z,3.80
2023-12-23T11:10:54.267Z,3.22
2023-12-23T11:13:29.771Z,4.68
2023-12-23T11:16:00.587Z,4.28
2023-12-23T11:18:31.228Z,14.45
2023-12-23T11:21:02.097Z,12.85
2023-12-23T11:23:37.552Z,7.18
2023-12-23T11:26:09.233Z,5.63
2023-12-23T11:28:44.439Z,6.82
2023-12-23T11:31:15.328Z,4.43
2023-12-23T11:33:46.204Z,8.93
2023-12-23T11:36:17.241Z,2.28
2023-12-23T11:38:53.322Z,1.67
2023-12-23T11:41:25.392Z,3.75
2023-12-23T11:44:00.695Z,3.13
2023-12-23T11:46:32.558Z,3.05
2023-12-23T11:49:04.752Z,2.30
2023-12-23T11:51:35.696Z,2.30
2023-12-23T11:54:06.749Z,2.75
2023-12-23T11:56:37.864Z,1.15
2023-12-23T11:59:11.608Z,2.28
2023-12-23T12:01:42.695Z,2.10
2023-12-23T12:04:13.688Z,3.97
2023-12-23T12:06:44.433Z,2.90
2023-12-23T12:09:15.120Z,3.60
2023-12-23T12:11:46.054Z,2.55
2023-12-23T12:14:19.330Z,2.55
2023-12-23T12:16:50.082Z,2.30
2023-12-23T12:19:20.711Z,0.80
2023-12-23T12:21:51.555Z,1.63
2023-12-23T12:24:22.686Z,2.50
2023-12-23T12:26:54.241Z,2.38
2023-12-23T12:29:28.050Z,2.10
2023-12-23T12:32:00.111Z,1.35
2023-12-23T12:34:32.473Z,1.50
2023-12-23T12:37:03.867Z,2.00
2023-12-23T12:39:34.534Z,1.10
2023-12-23T12:42:06.394Z,2.20
2023-12-23T12:44:42.087Z,1.20
2023-12-23T12:47:12.682Z,2.30
2023-12-23T12:49:59.513Z,1.67
2023-12-23T12:52:37.675Z,2.00
2023-12-23T12:55:09.626Z,2.80
2023-12-23T12:57:41.010Z,1.73
2023-12-23T13:00:16.534Z,0.73
2023-12-23T13:02:49.475Z,4.18
2023-12-23T13:05:21.169Z,2.47
2023-12-23T13:07:53.824Z,2.40
2023-12-23T13:10:24.465Z,1.83
2023-12-23T13:12:55.302Z,2.15
2023-12-23T13:15:28.727Z,1.75
2023-12-23T13:17:59.873Z,2.53
2023-12-23T13:20:30.743Z,2.85
2023-12-23T13:23:01.196Z,1.70
2023-12-23T13:25:32.175Z,1.40
2023-12-23T13:28:03.255Z,0.82
2023-12-23T13:30:37.050Z,1.08
2023-12-23T13:33:09.436Z,1.05
2023-12-23T13:35:40.736Z,0.98
2023-12-23T13:38:11.569Z,0.88
2023-12-23T13:40:42.262Z,0.80
2023-12-23T13:43:12.918Z,0.82
2023-12-23T13:45:46.440Z,1.85
2023-12-23T13:48:17.079Z,1.50
2023-12-23T13:50:48.023Z,0.80
2023-12-23T13:53:19.302Z,0.80
2023-12-23T13:55:51.608Z,0.88
2023-12-23T13:58:22.356Z,4.93
2023-12-23T14:00:59.027Z,5.30
2023-12-23T14:03:29.774Z,4.85
2023-12-23T14:06:02.594Z,3.17
2023-12-23T14:08:34.268Z,4.57
2023-12-23T14:11:05.368Z,5.78
2023-12-23T14:13:36.405Z,9.35
2023-12-23T14:16:10.537Z,4.10
2023-12-23T14:18:41.318Z,7.78
2023-12-23T14:21:11.881Z,3.10
2023-12-23T14:23:42.967Z,2.55
2023-12-23T14:26:13.851Z,1.55
2023-12-23T14:28:44.596Z,2.10
2023-12-23T14:31:18.188Z,1.42
2023-12-23T14:33:49.957Z,1.40
2023-12-23T14:36:20.914Z,1.80
2023-12-23T14:38:51.684Z,1.48
2023-12-23T14:41:23.525Z,1.60
2023-12-23T14:43:54.357Z,2.13
2023-12-23T14:46:27.758Z,1.98
2023-12-23T14:48:58.635Z,1.95
2023-12-23T14:51:29.463Z,2.10
2023-12-23T14:53:59.879Z,1.08
2023-12-23T14:56:30.777Z,1.92
2023-12-23T14:59:01.630Z,3.05
2023-12-23T15:01:36.886Z,0.90
2023-12-23T15:04:08.135Z,1.67
2023-12-23T15:06:39.195Z,1.50
2023-12-23T15:09:10.156Z,0.60
2023-12-23T15:11:40.873Z,1.60
2023-12-23T15:14:11.648Z,1.25
2023-12-23T15:16:45.932Z,2.05
2023-12-23T15:19:16.563Z,2.08
2023-12-23T15:21:47.508Z,1.40
2023-12-23T15:24:18.430Z,1.10
2023-12-23T15:26:49.454Z,1.15
2023-12-23T15:29:20.364Z,1.50
2023-12-23T15:31:53.894Z,2.35
2023-12-23T15:34:24.931Z,2.50
2023-12-23T15:36:57.322Z,1.80
2023-12-23T15:39:27.986Z,1.80
2023-12-23T15:41:59.120Z,2.10
2023-12-23T15:44:31.516Z,1.52
2023-12-23T15:47:05.441Z,1.70
2023-12-23T15:49:36.718Z,1.65
2023-12-23T15:52:08.337Z,1.83
2023-12-23T15:54:41.718Z,1.60
2023-12-23T15:57:12.339Z,1.48
2023-12-23T15:59:43.141Z,1.27
2023-12-23T16:02:16.805Z,1.40
2023-12-23T16:04:47.573Z,1.45
2023-12-23T16:07:18.710Z,1.50
2023-12-23T16:09:52.775Z,1.40
2023-12-23T16:12:23.637Z,3.47
2023-12-23T16:14:54.347Z,3.28
2023-12-23T16:17:30.365Z,7.22
2023-12-23T16:20:02.170Z,7.93
2023-12-23T16:22:33.354Z,7.80
2023-12-23T16:25:04.507Z,10.57
2023-12-23T16:27:36.360Z,10.65
2023-12-23T16:30:07.976Z,22.35
2023-12-23T16:32:41.857Z,10.80
2023-12-23T16:35:13.181Z,21.02
2023-12-23T16:37:44.143Z,5.90
2023-12-23T16:40:16.253Z,7.35
2023-12-23T16:42:46.956Z,12.15
2023-12-23T16:45:18.733Z,9.70
2023-12-23T16:47:54.171Z,11.95
2023-12-23T16:50:25.004Z,4.43
2023-12-23T16:52:56.350Z,4.43
2023-12-23T16:55:27.193Z,1.33
2023-12-23T16:57:57.823Z,7.65
2023-12-23T17:00:28.606Z,2.78
2023-12-23T17:03:02.365Z,4.15
2023-12-23T17:05:33.179Z,2.78
2023-12-23T17:08:04.411Z,6.95
2023-12-23T17:10:35.261Z,7.05
2023-12-23T17:13:06.000Z,13.85
2023-12-23T17:15:36.606Z,14.23
2023-12-23T17:18:11.010Z,13.90
2023-12-23T17:20:41.873Z,5.88
2023-12-23T17:23:13.116Z,7.50
2023-12-23T17:25:47.648Z,2.97
2023-12-23T17:28:18.396Z,7.93
2023-12-23T17:30:49.583Z,6.38
2023-12-23T17:33:23.333Z,5.13
2023-12-23T17:35:54.312Z,6.32
2023-12-23T17:38:24.933Z,8.00
2023-12-23T17:40:55.710Z,6.93
2023-12-23T17:43:26.425Z,7.07
2023-12-23T17:45:57.383Z,6.70
2023-12-23T17:48:33.845Z,8.23
2023-12-23T17:51:04.691Z,9.88
2023-12-23T17:53:35.944Z,4.00
2023-12-23T17:56:11.615Z,4.85
2023-12-23T17:58:43.163Z,7.47
2023-12-23T18:01:14.064Z,5.63
2023-12-23T18:03:47.356Z,4.72
2023-12-23T18:06:18.240Z,7.63
2023-12-23T18:08:49.059Z,5.38
2023-12-23T18:11:19.808Z,4.70
2023-12-23T18:13:50.865Z,8.63
2023-12-23T18:16:21.591Z,8.90
2023-12-23T18:18:55.130Z,7.10
2023-12-23T18:21:25.894Z,3.92
2023-12-23T18:23:56.396Z,6.15
2023-12-23T18:26:28.327Z,10.00
2023-12-23T18:28:59.719Z,8.68
2023-12-23T18:31:30.846Z,6.47
2023-12-23T18:34:04.479Z,6.72
2023-12-23T18:36:35.848Z,6.03
2023-12-23T18:39:06.513Z,8.18
2023-12-23T18:41:37.313Z,4.57
2023-12-23T18:44:08.769Z,4.43
2023-12-23T18:46:39.472Z,4.65
2023-12-23T18:49:16.870Z,3.67
2023-12-23T18:51:47.523Z,6.65
2023-12-23T18:54:18.549Z,5.95
2023-12-23T18:56:49.480Z,2.40
2023-12-23T18:59:20.305Z,3.33
2023-12-23T19:01:51.134Z,3.22
2023-12-23T19:04:24.988Z,3.25
2023-12-23T19:06:55.769Z,6.03
2023-12-23T19:09:26.527Z,2.80
2023-12-23T19:11:57.271Z,4.22
2023-12-23T19:14:27.977Z,2.67
2023-12-23T19:16:58.745Z,3.63
2023-12-23T19:19:32.281Z,2.10
2023-12-23T19:22:03.072Z,2.95
2023-12-23T19:24:33.958Z,2.78
2023-12-23T19:27:04.501Z,4.20
2023-12-23T19:29:35.190Z,4.40
2023-12-23T19:32:06.965Z,6.07
2023-12-23T19:34:40.530Z,2.60
2023-12-23T19:37:11.468Z,4.03
2023-12-23T19:39:44.883Z,2.95
2023-12-23T19:42:19.783Z,3.63
2023-12-23T19:44:50.477Z,4.30
2023-12-23T19:47:21.101Z,2.35
2023-12-23T19:49:54.798Z,2.35
2023-12-23T19:52:25.786Z,3.88
2023-12-23T19:54:56.456Z,1.90
2023-12-23T19:57:27.269Z,1.95
2023-12-23T19:59:58.004Z,2.55
2023-12-23T20:02:29.183Z,2.20
2023-12-23T20:05:02.523Z,2.22
2023-12-23T20:07:32.989Z,1.98
2023-12-23T20:10:03.506Z,1.65
2023-12-23T20:12:34.067Z,1.40
2023-12-23T20:15:04.880Z,1.48
2023-12-23T20:17:36.100Z,1.17
2023-12-23T20:20:10.896Z,0.82
2023-12-23T20:22:41.781Z,1.08
2023-12-23T20:25:12.998Z,0.52
2023-12-23T20:27:43.624Z,1.00
2023-12-23T20:30:14.662Z,0.60
2023-12-23T20:32:45.755Z,0.60
2023-12-23T20:35:19.498Z,1.30
2023-12-23T20:37:50.235Z,1.00
2023-12-23T20:40:21.033Z,0.52
2023-12-23T20:42:52.335Z,0.80
2023-12-23T20:45:23.215Z,0.80
2023-12-23T20:47:54.363Z,0.90
2023-12-23T20:50:27.657Z,0.70
2023-12-23T20:52:58.350Z,0.90
2023-12-23T20:55:29.078Z,0.60
2023-12-23T20:57:59.775Z,0.47
2023-12-23T21:00:30.804Z,0.90
2023-12-23T21:03:01.928Z,0.60
2023-12-23T21:05:35.532Z,0.40
2023-12-23T21:08:06.403Z,0.57
2023-12-23T21:10:37.589Z,0.63
2023-12-23T21:13:08.635Z,0.90
2023-12-23T21:15:39.733Z,0.50
2023-12-23T21:18:11.725Z,0.57
2023-12-23T21:20:45.496Z,1.10
2023-12-23T21:23:16.247Z,1.08
2023-12-23T21:25:48.159Z,2.03
2023-12-23T21:28:23.996Z,2.00
2023-12-23T21:30:55.035Z,1.08
2023-12-23T21:33:28.773Z,0.70
2023-12-23T21:36:02.329Z,1.88
2023-12-23T21:38:33.317Z,0.90
2023-12-23T21:41:03.836Z,3.75
2023-12-23T21:43:34.641Z,1.00
2023-12-23T21:46:05.521Z,1.23
2023-12-23T21:48:36.102Z,1.60
2023-12-23T21:51:09.625Z,1.15
2023-12-23T21:53:40.318Z,1.20
2023-12-23T21:56:11.565Z,1.30
2023-12-23T21:58:43.223Z,1.13
2023-12-23T22:01:18.238Z,2.00
2023-12-23T22:03:49.142Z,1.15
2023-12-23T22:06:23.622Z,1.20
2023-12-23T22:08:55.130Z,1.65
2023-12-23T22:11:25.982Z,0.75
2023-12-23T22:13:56.714Z,1.17
2023-12-23T22:16:27.588Z,1.60
2023-12-23T22:18:58.559Z,1.42
2023-12-23T22:21:32.275Z,1.63
2023-12-23T22:24:02.779Z,1.13
2023-12-23T22:26:33.582Z,1.50
2023-12-23T22:29:04.483Z,1.95
2023-12-23T22:31:35.044Z,1.85
2023-12-23T22:34:06.019Z,2.75
2023-12-23T22:36:39.680Z,2.85
2023-12-23T22:39:10.822Z,3.08
2023-12-23T22:41:41.698Z,4.25
2023-12-23T22:44:12.303Z,2.50
2023-12-23T22:46:43.261Z,6.47
2023-12-23T22:49:14.172Z,3.60
2023-12-23T22:51:47.803Z,4.05
2023-12-23T22:54:18.299Z,2.38
2023-12-23T22:56:49.305Z,3.90
2023-12-23T22:59:20.327Z,2.72
2023-12-23T23:01:51.364Z,2.08
2023-12-23T23:04:21.998Z,2.15
2023-12-23T23:06:55.582Z,3.25
2023-12-23T23:09:29.444Z,3.15
2023-12-23T23:12:01.573Z,3.17
2023-12-23T23:14:32.435Z,3.42
2023-12-23T23:17:03.650Z,2.47
2023-12-23T23:19:35.399Z,2.53
2023-12-23T23:22:08.933Z,2.67
2023-12-23T23:24:39.569Z,2.00
2023-12-23T23:27:10.632Z,6.65
2023-12-23T23:29:42.501Z,3.92
2023-12-23T23:32:13.337Z,2.88
2023-12-23T23:34:44.151Z,2.85
2023-12-23T23:37:18.118Z,4.03
2023-12-23T23:39:49.247Z,5.05
2023-12-23T23:42:19.793Z,2.85
2023-12-23T23:44:50.492Z,4.88
2023-12-23T23:47:21.072Z,4.63
2023-12-23T23:49:52.037Z,4.25
2023-12-23T23:52:26.302Z,3.90
2023-12-23T23:54:58.226Z,3.10
2023-12-23T23:57:28.907Z,4.50
2023-12-23T23:59:59.729Z,3.03
